Time;durP1;ratioP1;P1;durP2;ratioP2;P2;SDS_P1;SDS_P2;PMS_P1;PMS_P2;Temp;Humidity;BMP_temperature;BMP_pressure;BME280_temperature;BME280_humidity;BME280_pressure;Samples;Min_cycle;Max_cycle;Signal;HPM_P1;HPM_P2
2021/08/06 00:00:58;;;;;;;2.33;1.33;;;;;;;21.98;64.52;98985.94;4951692;29;20031;-67
2021/08/06 00:03:23;;;;;;;1.98;1.17;;;;;;;21.98;64.69;98977.13;4946174;28;20509;-66
2021/08/06 00:05:49;;;;;;;2.45;1.27;;;;;;;21.97;64.53;98976.31;4934971;29;20039;-66
2021/08/06 00:08:15;;;;;;;2.58;1.20;;;;;;;21.97;64.37;98972.84;4934965;28;20511;-70
2021/08/06 00:10:41;;;;;;;3.40;1.23;;;;;;;21.97;64.41;98989.66;4951772;28;20050;-68
2021/08/06 00:13:06;;;;;;;2.25;1.20;;;;;;;21.97;64.60;98984.34;4952722;28;20039;-66
2021/08/06 00:15:32;;;;;;;3.75;1.42;;;;;;;21.97;64.42;98983.53;4951680;28;20066;-67
2021/08/06 00:17:57;;;;;;;2.42;1.40;;;;;;;21.97;64.68;98981.66;4938869;28;20122;-67
2021/08/06 00:20:23;;;;;;;2.90;1.10;;;;;;;21.97;64.69;98981.66;4949939;28;20042;-68
2021/08/06 00:22:48;;;;;;;2.15;1.20;;;;;;;21.98;64.83;98977.94;4946709;28;20042;-66
2021/08/06 00:25:14;;;;;;;3.08;1.20;;;;;;;21.96;64.70;98973.91;4932384;29;20035;-68
2021/08/06 00:27:39;;;;;;;2.22;1.10;;;;;;;21.97;64.81;98981.66;4956437;28;20063;-66
2021/08/06 00:30:06;;;;;;;1.75;1.15;;;;;;;21.97;64.54;98980.84;4949117;28;20568;-67
2021/08/06 00:32:31;;;;;;;2.75;1.42;;;;;;;21.96;64.34;98977.38;4954797;28;20031;-66
2021/08/06 00:34:58;;;;;;;2.72;1.30;;;;;;;21.97;64.54;98980.84;4955100;28;20103;-67
2021/08/06 00:37:23;;;;;;;3.22;1.38;;;;;;;21.96;64.18;98982.72;4956483;28;20122;-67
2021/08/06 00:39:49;;;;;;;2.00;1.40;;;;;;;21.96;64.30;98985.41;4953983;28;20159;-66
2021/08/06 00:42:14;;;;;;;1.85;1.10;;;;;;;21.96;64.17;98985.41;4945792;28;20367;-66
2021/08/06 00:44:40;;;;;;;1.88;1.25;;;;;;;21.96;63.88;98987.25;4951248;28;20039;-66
2021/08/06 00:47:06;;;;;;;1.75;1.20;;;;;;;21.96;64.30;98980.06;4954531;28;20174;-69
2021/08/06 00:49:31;;;;;;;1.95;1.20;;;;;;;21.96;63.98;98987.25;4921716;29;20082;-67
2021/08/06 00:51:57;;;;;;;3.00;1.30;;;;;;;21.97;64.41;98988.88;4952214;28;20437;-66
2021/08/06 00:54:23;;;;;;;3.13;1.17;;;;;;;21.95;64.35;98983.78;4951029;28;20053;-68
2021/08/06 00:56:49;;;;;;;2.17;1.23;;;;;;;21.96;64.05;98988.06;4952049;28;20039;-66
2021/08/06 00:59:16;;;;;;;1.88;1.10;;;;;;;21.97;64.08;98986.19;4952549;28;20042;-66
2021/08/06 01:01:45;;;;;;;2.00;1.10;;;;;;;21.96;64.12;98992.59;4940727;28;20036;-67
2021/08/06 01:04:16;;;;;;;1.83;1.00;;;;;;;21.95;63.94;98993.66;4952739;28;20498;-66
2021/08/06 01:06:47;;;;;;;3.42;1.30;;;;;;;21.95;63.81;98989.13;4951560;28;20031;-66
2021/08/06 01:09:16;;;;;;;3.38;1.30;;;;;;;21.95;63.99;98991.78;4952006;28;20035;-67
2021/08/06 01:11:45;;;;;;;2.72;1.30;;;;;;;21.95;64.14;98994.47;4951076;28;20027;-67
2021/08/06 01:14:15;;;;;;;1.98;1.10;;;;;;;21.95;63.81;98996.34;4951827;28;20090;-67
2021/08/06 01:16:41;;;;;;;1.58;1.00;;;;;;;21.94;63.86;98998.19;4952327;28;20469;-67
2021/08/06 01:19:16;;;;;;;1.73;1.00;;;;;;;21.93;63.82;98996.56;4951312;28;20027;-67
2021/08/06 01:21:44;;;;;;;2.67;1.10;;;;;;;21.95;64.16;98996.34;4936347;29;20031;-66
2021/08/06 01:24:13;;;;;;;1.95;1.08;;;;;;;21.93;63.99;98991.22;4955863;28;20118;-67
2021/08/06 01:26:42;;;;;;;3.50;1.10;;;;;;;21.95;64.03;98989.13;4953357;28;20040;-67
2021/08/06 01:29:08;;;;;;;1.23;0.90;;;;;;;21.94;63.82;98997.41;4952787;28;20059;-66
2021/08/06 01:31:34;;;;;;;2.00;1.17;;;;;;;21.94;64.04;98990.19;4936653;29;20038;-68
2021/08/06 01:33:59;;;;;;;2.05;1.20;;;;;;;21.94;63.70;98992.84;4956732;28;20047;-66
2021/08/06 01:36:25;;;;;;;2.40;1.27;;;;;;;21.94;63.75;98989.38;4952913;28;20070;-67
2021/08/06 01:38:51;;;;;;;2.28;1.10;;;;;;;21.93;63.88;98993.91;4935510;28;20471;-71
2021/08/06 01:42:04;;;;;;;1.83;1.08;;;;;;;21.91;63.86;98990.69;4946337;28;20035;-66
2021/08/06 01:44:36;;;;;;;2.17;1.17;;;;;;;21.92;63.56;98994.16;4876599;29;20036;-66
2021/08/06 01:47:12;;;;;;;1.83;1.20;;;;;;;21.92;63.50;98989.63;4940312;28;20046;-66
2021/08/06 01:49:44;;;;;;;2.38;1.10;;;;;;;21.92;63.88;98988.81;4950856;28;20035;-66
2021/08/06 01:52:14;;;;;;;1.92;1.02;;;;;;;21.91;63.72;98988.00;4951191;28;20031;-66
2021/08/06 01:54:42;;;;;;;1.67;1.00;;;;;;;21.92;63.68;98988.81;4944222;28;20092;-71
2021/08/06 01:57:09;;;;;;;1.95;1.15;;;;;;;21.92;63.42;98984.28;4938724;28;20074;-67
2021/08/06 01:59:35;;;;;;;1.77;1.17;;;;;;;21.92;63.63;98992.28;4951309;28;20114;-67
2021/08/06 02:02:02;;;;;;;2.00;1.10;;;;;;;21.92;63.23;98988.81;4936899;28;20035;-67
2021/08/06 02:04:28;;;;;;;2.00;1.20;;;;;;;21.92;63.61;98986.13;4942581;28;20130;-66
2021/08/06 02:06:54;;;;;;;1.65;1.20;;;;;;;21.92;63.36;98984.28;4933906;28;20158;-66
2021/08/06 02:09:22;;;;;;;2.03;1.15;;;;;;;21.91;63.54;98982.66;4948477;28;20035;-68
2021/08/06 02:11:48;;;;;;;1.98;1.20;;;;;;;21.90;63.47;98981.06;4950547;28;20031;-66
2021/08/06 02:14:18;;;;;;;2.13;1.20;;;;;;;21.92;63.57;98986.13;4965460;28;20409;-67
2021/08/06 02:16:44;;;;;;;2.03;1.17;;;;;;;21.90;63.38;98986.41;4940706;28;20046;-68
2021/08/06 02:19:12;;;;;;;2.78;1.13;;;;;;;21.92;63.48;98991.47;4953632;28;20054;-66
2021/08/06 02:21:40;;;;;;;2.03;1.10;;;;;;;21.90;63.40;98991.75;4957072;28;20036;-67
2021/08/06 02:24:10;;;;;;;2.00;1.10;;;;;;;21.91;63.46;98996.03;4945821;28;20030;-66
2021/08/06 02:26:37;;;;;;;1.98;1.10;;;;;;;21.91;63.51;98989.88;4939999;29;20038;-68
2021/08/06 02:29:14;;;;;;;2.05;1.05;;;;;;;21.90;63.11;98991.75;4948718;28;20055;-67
2021/08/06 02:31:42;;;;;;;1.75;1.02;;;;;;;21.91;63.39;98993.34;4950005;28;20362;-69
2021/08/06 02:34:09;;;;;;;2.25;1.15;;;;;;;21.90;63.44;98993.59;4945099;28;20197;-67
2021/08/06 02:36:35;;;;;;;1.27;1.00;;;;;;;21.90;63.54;98994.41;4966715;28;20031;-67
2021/08/06 02:39:01;;;;;;;2.40;1.15;;;;;;;21.89;63.33;98990.13;4956648;28;20504;-66
2021/08/06 02:41:27;;;;;;;1.85;1.20;;;;;;;21.90;63.16;98994.41;4966907;28;20039;-67
2021/08/06 02:43:53;;;;;;;1.75;1.08;;;;;;;21.90;63.36;98990.94;4947100;28;20156;-66
2021/08/06 02:46:19;;;;;;;1.70;1.02;;;;;;;21.89;63.15;98995.47;4965679;28;20583;-66
2021/08/06 02:48:44;;;;;;;2.05;1.20;;;;;;;21.89;63.24;98990.13;4941009;29;20338;-66
2021/08/06 02:51:10;;;;;;;2.03;1.13;;;;;;;21.90;63.44;98993.59;4934081;28;20035;-67
2021/08/06 02:53:36;;;;;;;1.60;1.10;;;;;;;21.90;63.30;98997.06;4949359;28;20077;-68
2021/08/06 02:56:02;;;;;;;1.60;1.13;;;;;;;21.89;63.83;98995.47;4950866;28;20059;-67
2021/08/06 02:58:28;;;;;;;2.40;1.00;;;;;;;21.89;63.56;98992.81;4950274;28;20500;-68
2021/08/06 03:00:53;;;;;;;1.65;1.05;;;;;;;21.89;63.82;98994.66;4932532;29;20035;-67
2021/08/06 03:03:19;;;;;;;1.58;1.00;;;;;;;21.89;63.92;98997.34;4940208;28;20269;-66
2021/08/06 03:05:44;;;;;;;1.80;1.23;;;;;;;21.88;63.71;99001.88;4952641;28;20785;-67
2021/08/06 03:08:10;;;;;;;1.50;1.10;;;;;;;21.89;63.44;99005.34;4954000;28;20047;-67
2021/08/06 03:10:35;;;;;;;2.50;1.30;;;;;;;21.89;63.75;98995.47;4951309;28;20461;-66
2021/08/06 03:13:00;;;;;;;1.80;1.30;;;;;;;21.89;63.41;99000.81;4955013;28;20138;-67
2021/08/06 03:15:26;;;;;;;2.00;1.08;;;;;;;21.88;63.38;98993.88;4950080;28;20047;-69
2021/08/06 03:17:52;;;;;;;1.77;1.20;;;;;;;21.89;63.31;98998.13;4953892;29;20489;-67
2021/08/06 03:20:21;;;;;;;1.75;1.20;;;;;;;21.88;63.43;98996.53;4966136;28;20596;-67
2021/08/06 03:22:48;;;;;;;2.90;1.40;;;;;;;21.89;63.49;98990.13;4954024;28;20071;-68
2021/08/06 03:25:14;;;;;;;2.33;1.38;;;;;;;21.89;63.02;98997.34;4953326;29;20045;-67
2021/08/06 03:27:39;;;;;;;1.60;1.20;;;;;;;21.88;63.44;98993.88;4941984;28;20424;-67
2021/08/06 03:30:08;;;;;;;2.03;1.00;;;;;;;21.89;63.19;98998.13;4944845;29;20437;-67
2021/08/06 03:32:34;;;;;;;2.30;1.10;;;;;;;21.88;63.34;98993.88;4953942;29;20410;-68
2021/08/06 03:35:00;;;;;;;2.05;1.20;;;;;;;21.89;63.14;98986.66;4954087;29;20058;-67
2021/08/06 03:37:25;;;;;;;1.40;1.00;;;;;;;21.87;63.14;98986.91;4923537;29;20043;-66
2021/08/06 03:39:51;;;;;;;1.98;1.17;;;;;;;21.88;63.25;98985.84;4926661;29;20035;-67
2021/08/06 03:42:16;;;;;;;1.67;1.20;;;;;;;21.88;63.20;98982.38;4953934;29;20038;-67
2021/08/06 03:44:42;;;;;;;2.05;1.30;;;;;;;21.87;63.18;98984.25;4952399;29;20055;-66
2021/08/06 03:47:07;;;;;;;2.28;1.13;;;;;;;21.86;63.07;98987.97;4953406;29;20524;-67
2021/08/06 03:49:33;;;;;;;1.33;1.10;;;;;;;21.86;62.96;98985.31;4951635;29;20473;-68
2021/08/06 03:51:58;;;;;;;1.70;1.10;;;;;;;21.86;63.13;98987.97;4954266;29;20038;-67
2021/08/06 03:54:23;;;;;;;1.52;1.13;;;;;;;21.86;62.75;98987.19;4948572;29;20046;-68
2021/08/06 03:56:49;;;;;;;1.50;0.98;;;;;;;21.86;63.22;98990.66;4952957;29;20517;-68
2021/08/06 03:59:14;;;;;;;2.40;1.17;;;;;;;21.86;62.90;98996.00;4945056;29;20107;-67
2021/08/06 04:01:40;;;;;;;1.60;0.95;;;;;;;21.87;62.71;98986.13;4948424;29;20039;-66
2021/08/06 04:04:07;;;;;;;2.30;1.23;;;;;;;21.87;63.02;98988.78;4952277;29;20485;-66
2021/08/06 04:06:33;;;;;;;1.77;1.10;;;;;;;21.85;62.87;98990.91;4943119;29;20043;-66
2021/08/06 04:08:58;;;;;;;1.92;1.30;;;;;;;21.86;63.00;98995.19;4952044;29;20049;-67
2021/08/06 04:11:24;;;;;;;2.15;1.27;;;;;;;21.85;62.83;98991.72;4952715;29;20095;-68
2021/08/06 04:13:50;;;;;;;2.10;1.30;;;;;;;21.86;62.90;98995.19;4951127;28;20044;-66
2021/08/06 04:16:15;;;;;;;1.65;1.10;;;;;;;21.85;62.97;98991.72;4934410;28;20115;-66
2021/08/06 04:18:40;;;;;;;2.95;1.42;;;;;;;21.85;63.08;98997.06;4949040;28;20388;-66
2021/08/06 04:21:06;;;;;;;1.42;1.00;;;;;;;21.85;62.63;98998.91;4944076;29;20118;-67
2021/08/06 04:23:31;;;;;;;2.03;1.17;;;;;;;21.85;63.07;98997.06;4945929;29;20087;-67
2021/08/06 04:25:57;;;;;;;2.83;1.10;;;;;;;21.85;63.03;98996.25;4935212;29;20506;-67
2021/08/06 04:28:22;;;;;;;1.92;1.10;;;;;;;21.85;62.82;98997.06;4945315;28;20075;-66
2021/08/06 04:30:48;;;;;;;1.23;0.95;;;;;;;21.84;62.63;99006.13;4944942;29;20511;-68
2021/08/06 04:33:13;;;;;;;2.33;1.20;;;;;;;21.84;62.60;99003.44;4952564;29;20102;-66
2021/08/06 04:35:39;;;;;;;3.22;1.08;;;;;;;21.85;62.83;98998.91;4948207;28;20060;-69
2021/08/06 04:38:05;;;;;;;1.90;1.30;;;;;;;21.85;62.93;99009.59;4952518;29;20469;-67
2021/08/06 04:40:31;;;;;;;1.77;1.15;;;;;;;21.83;62.79;99002.66;4952426;29;20508;-70
2021/08/06 04:42:58;;;;;;;1.20;0.90;;;;;;;21.84;62.85;99006.13;4950684;29;20043;-67
2021/08/06 04:45:23;;;;;;;1.88;1.10;;;;;;;21.83;62.98;99013.31;4952949;29;20035;-67
2021/08/06 04:47:51;;;;;;;1.80;1.10;;;;;;;21.83;62.82;99007.97;4951889;29;20031;-67
2021/08/06 04:50:19;;;;;;;1.92;1.10;;;;;;;21.83;62.84;99005.31;4952794;29;20110;-67
2021/08/06 04:52:45;;;;;;;1.80;1.10;;;;;;;21.84;62.59;99011.47;4939832;29;20392;-67
2021/08/06 04:55:11;;;;;;;1.40;1.10;;;;;;;21.82;62.84;99002.91;4950900;29;20054;-66
2021/08/06 04:57:37;;;;;;;1.23;0.98;;;;;;;21.82;62.62;99016.25;4935057;29;20488;-67
2021/08/06 05:00:04;;;;;;;1.20;0.90;;;;;;;21.82;62.63;99011.72;4952109;29;20043;-68
2021/08/06 05:02:30;;;;;;;1.60;1.10;;;;;;;21.83;62.72;99012.53;4928320;29;20039;-67
2021/08/06 05:04:55;;;;;;;0.95;0.88;;;;;;;21.82;62.64;99009.03;4934085;29;20035;-67
2021/08/06 05:07:21;;;;;;;1.77;1.10;;;;;;;21.82;62.89;99008.25;4944390;29;20036;-67
2021/08/06 05:09:47;;;;;;;1.80;1.20;;;;;;;21.82;62.75;99008.25;4947180;28;20143;-67
2021/08/06 05:12:13;;;;;;;1.92;1.23;;;;;;;21.82;62.78;99014.38;4941107;29;20063;-67
2021/08/06 05:14:39;;;;;;;1.67;1.08;;;;;;;21.83;62.93;99009.84;4945931;28;20361;-69
2021/08/06 05:17:06;;;;;;;1.65;0.98;;;;;;;21.81;62.58;99010.09;4939391;29;20190;-67
2021/08/06 05:19:31;;;;;;;3.55;1.30;;;;;;;21.81;62.94;99015.44;4931361;29;20093;-66
2021/08/06 05:21:56;;;;;;;1.58;1.02;;;;;;;21.82;63.00;99018.91;4943134;29;20100;-66
2021/08/06 05:24:22;;;;;;;1.92;0.98;;;;;;;21.81;62.96;99023.44;4951251;29;20066;-68
2021/08/06 05:26:47;;;;;;;1.85;1.10;;;;;;;21.81;63.09;99020.78;4934705;29;20382;-66
2021/08/06 05:29:13;;;;;;;1.33;1.05;;;;;;;21.81;62.79;99030.66;4950780;28;20055;-67
2021/08/06 05:31:38;;;;;;;1.17;0.98;;;;;;;21.81;62.91;99028.78;4943971;29;20028;-67
2021/08/06 05:34:04;;;;;;;1.65;1.08;;;;;;;21.80;62.80;99026.38;4947336;29;20031;-66
2021/08/06 05:36:29;;;;;;;1.70;0.95;;;;;;;21.80;63.09;99029.84;4944492;29;20131;-66
2021/08/06 05:38:54;;;;;;;1.40;1.08;;;;;;;21.80;63.13;99029.03;4945563;29;20039;-67
2021/08/06 05:41:20;;;;;;;1.33;0.90;;;;;;;21.80;62.73;99029.03;4930846;29;20050;-66
2021/08/06 05:43:45;;;;;;;1.45;1.02;;;;;;;21.80;62.75;99029.03;4951800;29;20043;-67
2021/08/06 05:46:11;;;;;;;1.08;0.80;;;;;;;21.80;63.14;99037.06;4933933;29;20035;-68
2021/08/06 05:48:36;;;;;;;1.38;0.90;;;;;;;21.80;63.04;99035.19;4934394;29;20500;-68
2021/08/06 05:51:02;;;;;;;3.42;1.00;;;;;;;21.80;63.17;99035.19;4950283;29;20039;-67
2021/08/06 05:53:28;;;;;;;1.90;1.15;;;;;;;21.80;63.00;99031.72;4934061;29;20043;-66
2021/08/06 05:55:54;;;;;;;2.20;1.08;;;;;;;21.79;62.80;99030.09;4950826;29;20482;-67
2021/08/06 05:58:19;;;;;;;1.20;0.95;;;;;;;21.80;62.94;99037.06;4941027;29;20129;-67
2021/08/06 06:00:45;;;;;;;2.92;0.90;;;;;;;21.80;62.66;99039.72;4945846;29;20397;-66
2021/08/06 06:03:10;;;;;;;1.20;0.93;;;;;;;21.80;62.74;99034.38;4915311;29;20043;-66
2021/08/06 06:05:37;;;;;;;1.10;0.80;;;;;;;21.79;62.98;99032.78;4951045;29;20072;-67
2021/08/06 06:08:02;;;;;;;1.15;0.80;;;;;;;21.80;62.96;99031.72;4950143;29;20031;-68
2021/08/06 06:10:29;;;;;;;2.17;1.00;;;;;;;21.79;62.75;99043.47;4950831;29;20548;-68
2021/08/06 06:12:55;;;;;;;1.00;0.82;;;;;;;21.79;62.50;99030.09;4950851;29;20042;-68
2021/08/06 06:15:20;;;;;;;1.00;0.90;;;;;;;21.80;62.66;99037.06;4941872;28;20031;-68
2021/08/06 06:17:47;;;;;;;1.65;0.90;;;;;;;21.79;62.67;99027.44;4944178;29;20036;-70
2021/08/06 06:20:13;;;;;;;1.23;0.90;;;;;;;21.80;62.34;99029.03;4948599;28;20122;-67
2021/08/06 06:22:39;;;;;;;1.88;0.98;;;;;;;21.79;62.40;99035.44;4951126;29;20031;-67
2021/08/06 06:25:05;;;;;;;0.95;0.70;;;;;;;21.78;62.60;99033.84;4949906;29;20039;-67
2021/08/06 06:27:31;;;;;;;1.33;0.98;;;;;;;21.78;62.80;99033.84;4950203;29;20500;-66
2021/08/06 06:29:56;;;;;;;4.25;1.00;;;;;;;21.78;63.19;99036.50;4933356;29;20044;-68
2021/08/06 06:32:22;;;;;;;1.50;0.73;;;;;;;21.78;63.34;99037.31;4950969;29;20525;-67
2021/08/06 06:34:47;;;;;;;1.73;0.82;;;;;;;21.79;63.35;99038.13;4930954;29;20039;-66
2021/08/06 06:37:12;;;;;;;1.67;0.90;;;;;;;21.78;63.52;99045.31;4949920;29;20560;-66
2021/08/06 06:39:38;;;;;;;2.65;1.02;;;;;;;21.79;63.44;99046.94;4933126;29;20098;-67
2021/08/06 06:42:03;;;;;;;3.40;1.20;;;;;;;21.79;63.68;99052.25;4955117;29;20039;-66
2021/08/06 06:44:29;;;;;;;1.88;0.80;;;;;;;21.79;64.11;99049.59;4954664;29;20101;-67
2021/08/06 06:46:55;;;;;;;1.85;1.17;;;;;;;21.79;64.55;99038.91;4954607;29;20038;-67
2021/08/06 06:49:20;;;;;;;10.10;7.32;;;;;;;21.80;64.14;99051.22;4952276;29;20050;-67
2021/08/06 06:51:45;;;;;;;9.65;8.65;;;;;;;21.81;64.50;99052.00;4954703;28;20042;-67
2021/08/06 06:54:11;;;;;;;7.47;6.32;;;;;;;21.81;64.61;99046.66;4954401;29;20116;-67
2021/08/06 06:56:36;;;;;;;5.30;4.80;;;;;;;21.81;64.34;99046.66;4953626;29;20034;-66
2021/08/06 06:59:02;;;;;;;9.52;4.30;;;;;;;21.81;64.81;99054.69;4953561;29;20035;-66
2021/08/06 07:01:28;;;;;;;5.97;3.65;;;;;;;21.81;64.63;99055.47;4934800;29;20102;-67
2021/08/06 07:03:54;;;;;;;5.18;3.30;;;;;;;21.81;65.14;99058.16;4954030;28;20047;-66
2021/08/06 07:06:20;;;;;;;6.13;3.10;;;;;;;21.81;64.87;99076.84;4953999;29;20046;-66
2021/08/06 07:08:46;;;;;;;6.18;2.88;;;;;;;21.82;65.05;99066.97;4953785;29;20039;-65
2021/08/06 07:11:12;;;;;;;8.18;2.88;;;;;;;21.81;65.18;99065.34;4953628;29;20027;-65
2021/08/06 07:13:38;;;;;;;5.07;2.60;;;;;;;21.82;64.78;99062.44;4953678;28;20039;-68
2021/08/06 07:16:05;;;;;;;5.03;2.22;;;;;;;21.82;65.18;99069.63;4954644;29;20039;-65
2021/08/06 07:18:31;;;;;;;6.10;2.22;;;;;;;21.83;64.65;99076.59;4951706;29;20099;-67
2021/08/06 07:20:59;;;;;;;7.50;2.70;;;;;;;21.82;64.64;99077.63;4940244;29;20501;-66
2021/08/06 07:23:24;;;;;;;6.30;2.35;;;;;;;21.82;64.68;99074.97;4952897;29;20116;-65
2021/08/06 07:25:49;;;;;;;5.03;1.70;;;;;;;21.82;64.68;99074.97;4951888;29;20540;-66
2021/08/06 07:28:15;;;;;;;6.78;2.10;;;;;;;21.82;64.62;99070.44;4935797;29;20409;-68
2021/08/06 07:30:41;;;;;;;5.95;1.92;;;;;;;21.81;64.68;99070.69;4952912;29;20043;-68
2021/08/06 07:33:06;;;;;;;9.70;1.85;;;;;;;21.82;64.48;99069.63;4953507;29;20039;-68
2021/08/06 07:35:32;;;;;;;6.78;2.20;;;;;;;21.81;64.74;99079.50;4952170;29;20485;-67
2021/08/06 07:38:01;;;;;;;3.58;1.80;;;;;;;21.80;64.30;99080.56;4953483;29;20063;-68
2021/08/06 07:40:27;;;;;;;8.25;1.60;;;;;;;21.81;64.28;99086.72;4936368;29;20023;-66
2021/08/06 07:42:54;;;;;;;5.70;1.98;;;;;;;21.80;64.28;99083.25;4952835;29;20047;-67
2021/08/06 07:45:21;;;;;;;13.27;1.58;;;;;;;21.80;64.39;99088.56;4951463;29;20158;-66
2021/08/06 07:47:46;;;;;;;6.95;1.75;;;;;;;21.80;64.29;99096.59;4953448;29;20126;-73
2021/08/06 07:50:12;;;;;;;9.82;2.60;;;;;;;21.80;63.97;99095.78;4936506;29;20094;-69
2021/08/06 07:52:38;;;;;;;9.45;2.53;;;;;;;21.80;64.21;99099.25;4952168;28;20031;-65
2021/08/06 07:55:07;;;;;;;8.05;2.42;;;;;;;21.80;64.51;99112.59;4951917;29;20521;-65
2021/08/06 07:57:32;;;;;;;16.27;3.55;;;;;;;21.81;64.27;99108.88;4953156;29;20042;-64
2021/08/06 07:59:58;;;;;;;10.75;2.90;;;;;;;21.80;64.31;99093.09;4952641;29;20035;-66
2021/08/06 08:02:23;;;;;;;8.23;2.60;;;;;;;21.81;64.40;99105.41;4951544;29;20066;-66
2021/08/06 08:04:49;;;;;;;9.20;2.40;;;;;;;21.80;64.54;99104.59;4949489;29;20039;-66
2021/08/06 08:07:15;;;;;;;14.93;3.10;;;;;;;21.81;64.67;99108.88;4932788;29;20058;-68
2021/08/06 08:09:40;;;;;;;13.18;2.67;;;;;;;21.81;65.04;99100.84;4930414;29;20172;-68
2021/08/06 08:12:06;;;;;;;18.80;3.47;;;;;;;21.83;64.93;99108.63;4950457;29;20049;-67
2021/08/06 08:14:32;;;;;;;10.77;2.75;;;;;;;21.83;65.05;99096.06;4949618;29;20126;-67
2021/08/06 08:16:58;;;;;;;9.85;2.85;;;;;;;21.82;64.79;99089.13;4949505;29;20121;-73
2021/08/06 08:19:23;;;;;;;12.18;2.90;;;;;;;21.84;64.74;99094.22;4948723;28;20122;-71
2021/08/06 08:21:49;;;;;;;13.48;3.33;;;;;;;21.83;64.93;99092.59;4949595;29;20513;-74
2021/08/06 08:24:14;;;;;;;12.00;3.10;;;;;;;21.82;64.79;99089.13;4931955;29;20035;-69
2021/08/06 08:26:40;;;;;;;17.38;3.45;;;;;;;21.84;65.11;99102.22;4951446;29;20042;-68
2021/08/06 08:29:06;;;;;;;15.38;3.17;;;;;;;21.84;64.71;99102.22;4952226;29;20611;-72
2021/08/06 08:31:31;;;;;;;11.88;2.70;;;;;;;21.84;64.58;99104.88;4944876;28;20035;-72
2021/08/06 08:33:57;;;;;;;8.65;2.67;;;;;;;21.80;64.04;99106.44;4935091;29;20039;-71
2021/08/06 08:36:22;;;;;;;9.25;2.30;;;;;;;21.77;63.82;99109.59;4935129;29;20043;-68
2021/08/06 08:38:48;;;;;;;12.40;2.30;;;;;;;21.73;63.51;99105.84;4935145;29;20035;-68
2021/08/06 08:41:14;;;;;;;6.93;2.20;;;;;;;21.69;63.27;99097.53;4952204;29;20039;-69
2021/08/06 08:43:42;;;;;;;8.45;2.30;;;;;;;21.68;63.00;99106.59;4953147;29;20118;-68
2021/08/06 08:46:09;;;;;;;10.23;2.00;;;;;;;21.67;62.71;99101.50;4953265;29;20106;-68
2021/08/06 08:48:35;;;;;;;9.43;2.15;;;;;;;21.65;62.89;99098.28;4952757;29;20094;-69
2021/08/06 08:51:03;;;;;;;9.52;2.30;;;;;;;21.63;62.60;99106.56;4934972;29;20043;-68
2021/08/06 08:53:29;;;;;;;10.25;2.50;;;;;;;21.62;62.37;99102.28;4952481;29;20039;-69
2021/08/06 08:55:56;;;;;;;5.60;1.90;;;;;;;21.60;62.13;99104.38;4951340;28;20039;-75
2021/08/06 08:58:21;;;;;;;8.68;2.33;;;;;;;21.59;61.97;99100.09;4952006;29;20073;-70
2021/08/06 09:00:47;;;;;;;7.35;2.15;;;;;;;21.58;62.07;99100.34;4951495;29;20035;-68
2021/08/06 09:03:43;;;;;;;7.90;2.28;;;;;;;21.53;61.63;99101.09;4935055;29;20087;-68
2021/08/06 09:06:09;;;;;;;5.93;2.30;;;;;;;21.56;61.60;99110.47;4945510;29;20047;-70
2021/08/06 09:08:36;;;;;;;5.28;1.95;;;;;;;21.56;61.51;99103.25;4952069;29;20153;-68
2021/08/06 09:11:03;;;;;;;7.68;2.00;;;;;;;21.56;61.53;99105.13;4934002;29;20438;-69
2021/08/06 09:13:29;;;;;;;3.45;1.75;;;;;;;21.55;61.64;99117.66;4951668;29;20532;-69
2021/08/06 09:15:56;;;;;;;5.78;2.15;;;;;;;21.55;61.55;99111.53;4934871;29;20122;-68
2021/08/06 09:18:37;;;;;;;6.35;2.20;;;;;;;21.52;61.40;99118.97;4951822;29;20038;-71
2021/08/06 09:21:04;;;;;;;6.18;1.90;;;;;;;21.52;61.06;99118.16;4939320;28;20027;-68
2021/08/06 09:23:40;;;;;;;6.03;1.80;;;;;;;21.49;60.83;99124.81;4951725;29;20039;-68
2021/08/06 09:26:27;;;;;;;7.50;1.90;;;;;;;21.46;60.86;99124.47;4938550;29;20039;-68
2021/08/06 09:29:01;;;;;;;4.28;1.60;;;;;;;21.48;61.02;99128.53;4951556;28;20078;-68
2021/08/06 09:31:28;;;;;;;2.97;1.73;;;;;;;21.48;60.71;99125.06;4952173;29;20062;-68
2021/08/06 09:34:15;;;;;;;4.78;1.60;;;;;;;21.42;60.59;99116.19;4934119;29;20069;-69
2021/08/06 09:36:55;;;;;;;4.57;1.63;;;;;;;21.44;60.85;99118.59;4939699;29;20047;-68
2021/08/06 09:39:22;;;;;;;5.18;1.42;;;;;;;21.45;60.31;99117.53;4951151;29;20042;-73
2021/08/06 09:41:48;;;;;;;4.28;1.70;;;;;;;21.43;60.43;99125.78;4934225;29;20485;-68
2021/08/06 09:44:29;;;;;;;5.75;1.83;;;;;;;21.39;60.23;99111.34;4951284;29;20042;-70
2021/08/06 09:46:56;;;;;;;3.42;1.60;;;;;;;21.43;60.20;99103.66;4952160;29;20027;-68
2021/08/06 09:49:22;;;;;;;7.03;1.98;;;;;;;21.44;60.49;99111.41;4934718;29;20146;-73
2021/08/06 09:51:50;;;;;;;5.30;1.58;;;;;;;21.45;60.38;99120.22;4952074;28;20490;-69
2021/08/06 09:54:26;;;;;;;5.63;1.83;;;;;;;21.42;60.09;99116.19;4950868;29;20042;-68
2021/08/06 09:57:11;;;;;;;5.00;1.90;;;;;;;21.38;60.37;99120.41;4951821;28;20035;-71
2021/08/06 09:59:37;;;;;;;4.15;1.63;;;;;;;21.42;59.86;99118.84;4951375;29;20027;-71
2021/08/06 10:02:17;;;;;;;6.10;2.20;;;;;;;21.40;60.17;99120.16;4943711;29;20031;-70
2021/08/06 10:04:55;;;;;;;4.65;2.05;;;;;;;21.42;60.12;99121.50;4933639;29;20046;-69
2021/08/06 10:07:21;;;;;;;6.15;2.20;;;;;;;21.43;60.20;99123.13;4934418;29;20097;-69
2021/08/06 10:09:47;;;;;;;6.03;2.38;;;;;;;21.43;59.86;99117.78;4950746;29;20465;-70
2021/08/06 10:12:13;;;;;;;6.80;1.92;;;;;;;21.42;59.74;99116.19;4948903;29;20039;-74
2021/08/06 10:14:38;;;;;;;6.70;1.88;;;;;;;21.42;60.01;99116.19;4933276;28;20042;-76
2021/08/06 10:17:04;;;;;;;6.93;2.15;;;;;;;21.43;60.11;99119.66;4930947;29;20401;-75
2021/08/06 10:19:30;;;;;;;6.82;2.58;;;;;;;21.42;59.96;99124.19;4948258;28;20043;-72
2021/08/06 10:21:57;;;;;;;7.35;1.90;;;;;;;21.42;60.13;99124.19;4948133;28;20481;-73
2021/08/06 10:24:22;;;;;;;8.13;2.20;;;;;;;21.41;59.88;99119.91;4930038;29;20432;-71
2021/08/06 10:26:49;;;;;;;6.95;2.20;;;;;;;21.42;60.11;99121.50;4930740;29;20039;-70
2021/08/06 10:29:19;;;;;;;6.13;2.08;;;;;;;21.43;59.98;99117.78;4947574;29;20051;-70
2021/08/06 10:32:07;;;;;;;5.18;2.05;;;;;;;21.39;60.62;99119.34;4948121;29;20067;-70
2021/08/06 10:34:33;;;;;;;6.22;2.00;;;;;;;21.46;60.37;99124.47;4946024;29;20031;-69
2021/08/06 10:36:58;;;;;;;7.75;2.22;;;;;;;21.46;60.32;99119.16;4930860;29;20121;-68
2021/08/06 10:39:30;;;;;;;8.52;2.08;;;;;;;21.45;60.36;99126.34;4946577;29;20040;-71
2021/08/06 10:41:57;;;;;;;4.90;2.13;;;;;;;21.48;60.32;99125.88;4946966;29;20036;-70
2021/08/06 10:44:22;;;;;;;7.28;2.20;;;;;;;21.50;60.77;99130.94;4943778;29;20040;-67
2021/08/06 10:47:14;;;;;;;9.65;2.28;;;;;;;21.45;60.63;99129.00;4953416;29;20050;-74
2021/08/06 10:49:39;;;;;;;6.22;1.98;;;;;;;21.50;60.74;99134.44;4927560;29;20047;-67
2021/08/06 10:52:19;;;;;;;4.80;2.10;;;;;;;21.49;60.36;99140.81;4950118;29;20091;-67
2021/08/06 10:54:45;;;;;;;4.97;2.20;;;;;;;21.52;60.45;99144.84;4950008;29;20481;-66
2021/08/06 10:57:37;;;;;;;4.75;2.13;;;;;;;21.47;60.75;99129.59;4950336;29;20430;-66
2021/08/06 11:00:03;;;;;;;5.53;2.00;;;;;;;21.52;60.17;99134.97;4950519;29;20027;-73
2021/08/06 11:02:41;;;;;;;5.47;2.20;;;;;;;21.49;60.39;99124.81;4950895;29;20151;-67
2021/08/06 11:05:33;;;;;;;5.40;2.08;;;;;;;21.48;60.02;99133.06;4950677;29;20497;-70
2021/08/06 11:08:01;;;;;;;6.03;2.28;;;;;;;21.52;60.05;99128.84;4949845;29;20110;-69
2021/08/06 11:10:47;;;;;;;6.72;1.85;;;;;;;21.47;60.32;99132.25;4949374;29;20023;-67
2021/08/06 11:13:51;;;;;;;6.20;2.42;;;;;;;21.46;60.15;99138.66;4950680;28;20249;-70
2021/08/06 11:16:17;;;;;;;5.15;2.00;;;;;;;21.52;60.43;99132.31;4910522;29;20416;-68
2021/08/06 11:18:44;;;;;;;5.18;2.15;;;;;;;21.53;60.27;99133.13;4949082;28;20035;-70
2021/08/06 11:21:10;;;;;;;3.95;1.98;;;;;;;21.54;60.14;99134.72;4946979;29;20129;-67
2021/08/06 11:23:36;;;;;;;4.65;2.00;;;;;;;21.56;60.00;99118.47;4931626;29;20027;-67
2021/08/06 11:26:07;;;;;;;4.97;1.98;;;;;;;21.54;60.32;99126.72;4948677;28;20046;-70
2021/08/06 11:28:32;;;;;;;4.80;2.10;;;;;;;21.56;60.11;99124.59;4953824;28;20082;-67
2021/08/06 11:30:58;;;;;;;5.35;2.22;;;;;;;21.57;60.30;99120.06;4953987;29;20106;-67
2021/08/06 11:33:23;;;;;;;4.72;2.10;;;;;;;21.56;60.15;99115.78;4936348;29;20483;-70
2021/08/06 11:35:49;;;;;;;5.80;1.83;;;;;;;21.57;60.00;99118.22;4954318;29;20043;-68